FW0607 Weather Reports


Display with metric or nautical units.
time (UTC)temp
F
wind
direction
speed
MPH
gust
MPH
rain 1hr
in
rain 24hr
in
rain mn
in
humidity
%
barometer
mb
20220927034516 61 92 0.0 0.0 0.00 0.00 0.00 81 1012.9
20220927033014 61 92 0.0 0.0 0.00 0.00 0.00 79 1012.9
20220927031511 62 154 0.0 0.0 0.00 0.00 0.00 77 1012.7
20220927030026 63 151 0.0 0.0 0.00 0.00 0.00 75 1012.6
20220927024512 63 360 0.0 0.0 0.00 0.00 0.00 73 1012.7
20220927023016 63 113 0.0 0.0 0.00 0.00 0.00 74 1012.5
20220927021510 64 116 0.0 0.0 0.00 0.00 0.00 72 1012.3
20220927020009 64 360 0.0 0.0 0.00 0.00 0.00 70 1012.1
20220927014523 65 360 0.0 0.0 0.00 0.00 0.00 69 1012.0
20220927013008 65 360 0.0 0.0 0.00 0.00 0.00 68 1012.0
20220927011511 66 360 0.0 0.0 0.00 0.00 0.00 68 1011.7
20220927010018 67 360 0.0 0.0 0.00 0.00 0.00 69 1011.5
20220927004507 67 75 0.0 0.0 0.00 0.00 0.00 65 1011.3
20220927003007 68 74 0.0 0.0 0.00 0.00 0.00 64 1011.1
20220927001506 69 73 0.0 0.0 0.00 0.00 0.00 63 1010.9
20220927000011 71 74 0.0 0.0 0.00 0.00 0.00 60 1010.6
20220926234505 72 77 0.0 0.0 0.00 0.00 0.00 59 1010.5
20220926233004 73 74 0.0 0.0 0.00 0.00 0.00 59 1010.4
20220926231503 75 73 0.0 2.0 0.00 0.00 0.00 58 1010.1
20220926230003 76 227 0.0 0.0 0.00 0.00 0.00 53 1010.0
20220926224503 79 227 0.0 4.0 0.00 0.00 0.00 47 1009.9
20220926223002 81 226 0.0 3.0 0.00 0.00 0.00 39 1009.7
20220926221501 81 226 0.0 2.0 0.00 0.00 0.00 44 1009.6
20220926220003 83 208 0.0 4.0 0.00 0.00 0.00 37 1009.5
20220926214505 83 227 1.0 4.0 0.00 0.00 0.00 38 1009.3
20220926213112 85 197 0.0 8.0 0.00 0.00 0.00 38 1009.3
20220926213001 85 197 0.0 8.0 0.00 0.00 0.00 38 1009.3
20220926211600 85 209 0.0 9.0 0.00 0.00 0.00 38 1009.2
20220926210059 85 232 0.0 2.0 0.00 0.00 0.00 38 1009.2
20220926204637 85 236 0.0 5.0 0.00 0.00 0.00 42 1009.1
20220926203158 85 232 0.0 4.0 0.00 0.00 0.00 40 1009.0
20220926201556 86 233 1.0 4.0 0.00 0.00 0.00 38 1009.0
20220926200114 87 238 0.0 4.0 0.00 0.00 0.00 37 1009.0
20220926194605 87 203 0.0 5.0 0.00 0.00 0.00 37 1009.2
20220926193058 87 240 1.0 5.0 0.00 0.00 0.00 35 1009.3
20220926191635 87 233 1.0 4.0 0.00 0.00 0.00 36 1009.2
20220926190056 87 266 1.0 7.0 0.00 0.00 0.00 36 1009.5
20220926184555 87 255 0.0 4.0 0.00 0.00 0.00 34 1009.5
20220926183049 87 223 1.0 4.0 0.00 0.00 0.00 37 1009.7
20220926181548 87 219 0.0 5.0 0.00 0.00 0.00 42 1010.1
20220926180044 86 202 1.0 10.0 0.00 0.00 0.00 42 1010.3
20220926174541 86 229 1.0 5.0 0.00 0.00 0.00 41 1010.5
20220926173043 86 253 0.0 3.0 0.00 0.00 0.00 44 1010.7
20220926171540 85 229 0.0 4.0 0.00 0.00 0.00 50 1010.8
20220926170056 83 212 0.0 4.0 0.00 0.00 0.00 55 1011.1
20220926164545 83 212 3.0 5.0 0.00 0.00 0.00 57 1011.4
20220926163137 81 211 1.0 5.0 0.00 0.00 0.00 61 1011.5
20220926161530 81 216 1.0 4.0 0.00 0.00 0.00 63 1011.8
20220926160023 80 211 0.0 4.0 0.00 0.00 0.00 64 1012.0
20220926154523 78 233 1.0 6.0 0.00 0.00 0.00 69 1012.2
20220926153018 78 220 0.0 4.0 0.00 0.00 0.00 72 1012.5
20220926151515 77 215 0.0 4.0 0.00 0.00 0.00 72 1012.4
20220926150020 76 225 0.0 3.0 0.00 0.00 0.00 75 1012.7
20220926144509 75 199 0.0 3.0 0.00 0.00 0.00 78 1012.7
20220926143006 74 171 0.0 2.0 0.00 0.00 0.00 81 1012.5
20220926141503 73 184 0.0 2.0 0.00 0.00 0.00 84 1012.5
20220926140114 72 238 1.0 3.0 0.00 0.00 0.00 86 1012.3
20220926134606 71 221 0.0 4.0 0.00 0.00 0.00 88 1012.2
20220926133054 70 217 0.0 3.0 0.00 0.00 0.00 91 1012.2
20220926131555 69 194 0.0 0.0 0.00 0.00 0.00 91 1012.1
20220926130052 68 194 0.0 0.0 0.00 0.00 0.00 92 1012.1
20220926124547 66 194 0.0 0.0 0.00 0.00 0.00 96 1011.9
20220926123055 63 194 0.0 1.0 0.00 0.00 0.00 97 1011.8
20220926121545 63 194 0.0 0.0 0.00 0.00 0.00 97 1011.8
20220926120058 62 194 0.0 0.0 0.00 0.00 0.00 97 1011.7
20220926114544 62 194 0.0 0.0 0.00 0.00 0.00 97 1011.7
20220926113044 62 194 0.0 0.0 0.00 0.00 0.00 97 1011.4
20220926111551 62 194 0.0 0.0 0.00 0.00 0.00 97 1011.3
20220926110044 62 194 0.0 0.0 0.00 0.00 0.00 97 1011.1
20220926104541 62 194 0.0 0.0 0.00 0.00 0.00 97 1011.0
20220926103045 63 194 0.0 0.0 0.00 0.00 0.00 97 1011.0
20220926101546 63 194 0.0 0.0 0.00 0.00 0.00 97 1010.9
20220926100038 63 194 0.0 0.0 0.00 0.00 0.00 97 1010.8
20220926094605 63 194 0.0 0.0 0.00 0.00 0.00 96 1010.7
20220926093050 63 194 0.0 0.0 0.00 0.00 0.00 97 1010.6
20220926091534 63 194 0.0 0.0 0.00 0.00 0.00 97 1010.7
20220926090037 63 194 0.0 0.0 0.00 0.00 0.00 96 1010.8
20220926084534 64 194 0.0 0.0 0.00 0.00 0.00 96 1010.8
20220926083129 64 194 0.0 0.0 0.00 0.00 0.00 96 1010.8
20220926081547 64 194 0.0 0.0 0.00 0.00 0.00 96 1010.9
20220926080027 64 194 0.0 0.0 0.00 0.00 0.00 96 1011.1
20220926074526 64 194 0.0 0.0 0.00 0.00 0.00 96 1011.0
20220926073035 64 194 0.0 0.0 0.00 0.00 0.00 96 1011.1
20220926071524 65 194 0.0 0.0 0.00 0.00 0.00 95 1011.1
20220926070023 65 194 0.0 0.0 0.00 0.00 0.00 95 1011.0
20220926064525 65 194 0.0 0.0 0.00 0.00 0.00 95 1011.1
20220926063026 65 194 0.0 0.0 0.00 0.00 0.00 95 1011.1
20220926061520 65 194 0.0 0.0 0.00 0.00 0.00 94 1011.2
20220926060019 65 194 0.0 0.0 0.00 0.00 0.00 94 1011.2
20220926054523 66 194 0.0 0.0 0.00 0.00 0.00 94 1011.2
20220926053016 66 194 0.0 0.0 0.00 0.00 0.00 94 1011.4
20220926051515 66 194 0.0 0.0 0.00 0.00 0.00 94 1011.4
20220926050023 66 194 0.0 0.0 0.00 0.00 0.00 94 1011.5
20220926044510 66 194 0.0 0.0 0.00 0.00 0.00 93 1011.6
20220926043025 66 194 0.0 0.0 0.00 0.00 0.00 93 1011.8
20220926041508 67 194 0.0 0.0 0.00 0.00 0.00 93 1011.8
20220926040018 67 194 0.0 0.0 0.00 0.00 0.00 92 1011.7